Flugwetter

METAR EDDW
2024/05/23 22:20 EDDW 232220Z AUTO 11001KT CAVOK 13/12 Q1017
TAF EDDW
2024/05/23 18:27 TAF EDDW 231700Z 2318/2418 25008KT 9999 SCT030 BECMG 2319/2321 VRB02KT TEMPO 2401/2406 3500 BR PROB30 TEMPO 2401/2406 1200 BCFG BECMG 2409/2412 06006KT TEMPO 2414/2418 SHRA BKN050TCU
METAR EDDH
2024/05/23 22:20 EDDH 232220Z AUTO VRB01KT 9999 0900 R23/P2000N R15/1500D BCFG NCD 12/12 Q1018 TEMPO 0800 FG
TAF EDDH
2024/05/23 21:08 TAF AMD EDDH 232156Z 2321/2424 VRB02KT 9999 FEW040 TEMPO 2321/2406 2500 BR PROB40 TEMPO 2400/2405 1200 BCFG BECMG 2409/2412 06007KT TEMPO 2414/2424 SHRA BKN050TCU
METAR VRMM
2024/05/23 21:00 VRMM 232100Z 25024KT 9000 SCT017TCU OVC100 29/26 Q1005 TEMPO 26030G50KT 5000 SHRA
TAF VRMM
2024/05/23 18:42 TAF VRMM 231700Z 2318/2424 26028KT 9000 SCT016TCU BKN100 TEMPO 2318/2324 27030G55KT 2000 +SHRA SQ SCT015CB

Quelle:

Bereitgestellt von den Servern der NOAA tgftp.nws.noaa.gov
Alle Angaben ohne Gewähr